Time;durP1;ratioP1;P1;durP2;ratioP2;P2;SDS_P1;SDS_P2;PMS_P1;PMS_P2;Temp;Humidity;BMP_temperature;BMP_pressure;BME280_temperature;BME280_humidity;BME280_pressure;Samples;Min_cycle;Max_cycle;Signal;HPM_P1;HPM_P2
2021/03/14 00:01:20;;;;;;;0.80;0.50;;;3.60;99.90;;;;;;5076375;28;20180;-70
2021/03/14 00:03:46;;;;;;;2.50;0.67;;;3.70;99.90;;;;;;5075855;28;20197;-70
2021/03/14 00:06:12;;;;;;;0.37;0.37;;;3.80;99.90;;;;;;5076158;28;20249;-69
2021/03/14 00:08:37;;;;;;;0.40;0.40;;;3.90;99.90;;;;;;5074925;28;20570;-70
2021/03/14 00:11:06;;;;;;;0.40;0.40;;;3.80;99.90;;;;;;5076153;28;20719;-70
2021/03/14 00:13:34;;;;;;;0.50;0.50;;;3.70;99.90;;;;;;5076021;28;20180;-69
2021/03/14 00:16:03;;;;;;;0.30;0.30;;;3.60;99.90;;;;;;5075883;28;20283;-70
2021/03/14 00:18:33;;;;;;;0.40;0.40;;;3.60;99.90;;;;;;5075821;28;20247;-69
2021/03/14 00:21:00;;;;;;;0.50;0.50;;;3.70;99.90;;;;;;5075807;28;20172;-70
2021/03/14 00:23:26;;;;;;;0.45;0.43;;;3.60;99.90;;;;;;5075674;28;20187;-70
2021/03/14 00:25:53;;;;;;;1.00;0.50;;;3.70;99.90;;;;;;5075836;28;20193;-69
2021/03/14 00:28:19;;;;;;;0.60;0.57;;;3.60;99.90;;;;;;5075732;28;20646;-69
2021/03/14 00:30:46;;;;;;;0.60;0.60;;;3.30;99.90;;;;;;5075701;28;20176;-70
2021/03/14 00:33:12;;;;;;;0.40;0.40;;;3.60;99.90;;;;;;5075396;28;20416;-70
2021/03/14 00:35:38;;;;;;;0.40;0.40;;;3.60;99.90;;;;;;5075733;28;20192;-70
2021/03/14 00:38:03;;;;;;;0.38;0.38;;;3.70;99.90;;;;;;5075553;28;20178;-70
2021/03/14 00:40:30;;;;;;;0.40;0.40;;;3.80;99.90;;;;;;5075582;28;20238;-70
2021/03/14 00:43:04;;;;;;;0.35;0.35;;;3.90;99.90;;;;;;5075537;28;20174;-70
2021/03/14 00:45:32;;;;;;;0.40;0.40;;;3.70;99.90;;;;;;5075454;28;20170;-69
2021/03/14 00:48:02;;;;;;;0.40;0.40;;;3.60;99.90;;;;;;5075533;28;20165;-69
2021/03/14 00:50:30;;;;;;;0.40;0.40;;;3.60;99.90;;;;;;5075439;28;20172;-70
2021/03/14 00:52:56;;;;;;;0.40;0.40;;;3.60;99.90;;;;;;5075368;28;20185;-69
2021/03/14 00:55:22;;;;;;;0.43;0.43;;;3.50;99.90;;;;;;5074435;28;20173;-69
2021/03/14 00:57:47;;;;;;;3.50;0.70;;;3.50;99.90;;;;;;5074457;28;20638;-69
2021/03/14 01:00:13;;;;;;;0.40;0.40;;;3.30;99.90;;;;;;5075043;28;20909;-70
2021/03/14 01:02:39;;;;;;;0.77;0.77;;;3.30;99.90;;;;;;5075070;28;20247;-69
2021/03/14 01:05:05;;;;;;;0.40;0.40;;;3.20;99.90;;;;;;5075106;28;20237;-69
2021/03/14 01:07:31;;;;;;;0.30;0.30;;;3.30;99.90;;;;;;5074884;28;20175;-70
2021/03/14 01:09:56;;;;;;;0.60;0.60;;;3.40;99.90;;;;;;5074991;28;20185;-70
2021/03/14 01:12:22;;;;;;;0.50;0.50;;;3.30;99.90;;;;;;5074870;28;20645;-70
2021/03/14 01:14:48;;;;;;;0.40;0.40;;;3.40;99.90;;;;;;5074707;28;20180;-69
2021/03/14 01:17:13;;;;;;;0.60;0.50;;;3.60;99.90;;;;;;5074927;28;20593;-70
2021/03/14 01:19:39;;;;;;;0.70;0.60;;;3.60;99.90;;;;;;5074558;28;20538;-70
2021/03/14 01:22:05;;;;;;;0.80;0.40;;;3.70;99.90;;;;;;5074784;28;20176;-69
2021/03/14 01:24:30;;;;;;;1.27;0.50;;;3.70;99.90;;;;;;5074469;28;20173;-70
2021/03/14 01:26:57;;;;;;;0.40;0.40;;;3.60;99.90;;;;;;5074739;28;20168;-69
2021/03/14 01:29:23;;;;;;;0.65;0.65;;;3.70;99.90;;;;;;5074460;28;20192;-69
2021/03/14 01:31:48;;;;;;;0.60;0.40;;;3.80;99.90;;;;;;5074445;28;20174;-69
2021/03/14 01:34:14;;;;;;;0.50;0.50;;;3.50;99.90;;;;;;5074303;28;20169;-69
2021/03/14 01:36:40;;;;;;;0.47;0.47;;;3.50;99.90;;;;;;5074425;28;20180;-70
2021/03/14 01:39:06;;;;;;;0.30;0.30;;;3.50;99.90;;;;;;5074371;28;20283;-70
2021/03/14 01:41:31;;;;;;;0.53;0.53;;;3.60;99.90;;;;;;5074551;28;20181;-70
2021/03/14 01:43:58;;;;;;;0.40;0.40;;;3.50;99.90;;;;;;5074046;28;20410;-70
2021/03/14 01:46:26;;;;;;;0.50;0.40;;;3.60;99.90;;;;;;5074082;28;20165;-70
2021/03/14 01:48:52;;;;;;;0.50;0.50;;;3.70;99.90;;;;;;5074231;28;20610;-70
2021/03/14 01:51:18;;;;;;;0.40;0.40;;;3.70;99.90;;;;;;5074163;28;20234;-70
2021/03/14 01:53:43;;;;;;;0.40;0.40;;;3.70;99.90;;;;;;5074009;28;20181;-70
2021/03/14 01:56:09;;;;;;;0.37;0.37;;;3.90;99.90;;;;;;5074052;28;20169;-70
2021/03/14 01:58:35;;;;;;;0.50;0.50;;;3.80;99.90;;;;;;5073998;28;20205;-69
2021/03/14 02:01:02;;;;;;;0.50;0.50;;;3.70;99.90;;;;;;5074078;28;20529;-69
2021/03/14 02:03:27;;;;;;;1.85;0.40;;;3.60;99.90;;;;;;5073734;28;20200;-69
2021/03/14 02:05:53;;;;;;;3.83;0.50;;;3.40;99.90;;;;;;5073951;28;20200;-70
2021/03/14 02:08:20;;;;;;;0.40;0.40;;;3.40;99.90;;;;;;5073747;28;20539;-69
2021/03/14 02:10:49;;;;;;;0.30;0.30;;;3.40;99.90;;;;;;5073814;28;20177;-70
2021/03/14 02:13:22;;;;;;;0.30;0.30;;;3.40;99.90;;;;;;5073606;28;20260;-70
2021/03/14 02:15:55;;;;;;;0.40;0.40;;;3.40;99.90;;;;;;5073774;28;20190;-69
2021/03/14 02:18:23;;;;;;;0.30;0.30;;;3.40;99.90;;;;;;5073613;28;20197;-70
2021/03/14 02:20:50;;;;;;;0.40;0.40;;;3.50;99.90;;;;;;5073748;28;20530;-69
2021/03/14 02:23:35;;;;;;;0.40;0.40;;;3.50;99.90;;;;;;5073374;28;20219;-70
2021/03/14 02:26:22;;;;;;;0.30;0.30;;;3.70;99.90;;;;;;5073711;28;20162;-70
2021/03/14 02:28:49;;;;;;;0.30;0.30;;;3.50;99.70;;;;;;5073620;28;20224;-70
2021/03/14 02:31:18;;;;;;;0.30;0.30;;;3.50;99.90;;;;;;5073839;28;20619;-70
2021/03/14 02:33:46;;;;;;;0.40;0.40;;;3.70;99.90;;;;;;5073120;28;20172;-70
2021/03/14 02:36:13;;;;;;;1.20;0.50;;;3.80;99.80;;;;;;5073655;28;20208;-70
2021/03/14 02:38:43;;;;;;;0.60;0.60;;;3.80;99.70;;;;;;5073441;28;20208;-70
2021/03/14 02:41:10;;;;;;;0.50;0.40;;;3.70;99.80;;;;;;5073380;28;20208;-70
2021/03/14 02:43:37;;;;;;;0.40;0.40;;;3.60;99.90;;;;;;5073290;28;20237;-69
2021/03/14 02:46:04;;;;;;;0.30;0.30;;;3.40;99.90;;;;;;5073810;28;20555;-70
2021/03/14 02:48:30;;;;;;;0.88;0.38;;;3.30;99.40;;;;;;5073331;28;20224;-69
2021/03/14 02:50:59;;;;;;;0.40;0.40;;;3.20;99.40;;;;;;5073318;28;20546;-69
2021/03/14 02:53:26;;;;;;;0.70;0.70;;;3.10;99.60;;;;;;5073128;28;20220;-70
2021/03/14 02:55:55;;;;;;;0.93;0.50;;;3.10;99.50;;;;;;5073188;28;20179;-70
2021/03/14 02:58:22;;;;;;;3.20;0.60;;;3.20;99.40;;;;;;5073293;28;20209;-70
2021/03/14 03:00:50;;;;;;;5.30;0.80;;;3.00;99.50;;;;;;5073350;28;20627;-69
2021/03/14 03:03:19;;;;;;;0.93;0.70;;;2.80;98.70;;;;;;5073056;28;20621;-69
2021/03/14 03:05:46;;;;;;;0.70;0.55;;;2.50;99.00;;;;;;5073102;28;20196;-69
2021/03/14 03:08:12;;;;;;;1.05;0.65;;;2.50;99.10;;;;;;5073079;28;20171;-70
2021/03/14 03:10:42;;;;;;;0.40;0.40;;;2.50;98.90;;;;;;5073111;28;20181;-69
2021/03/14 03:13:10;;;;;;;0.60;0.60;;;2.70;99.10;;;;;;5072776;28;20598;-69
2021/03/14 03:15:36;;;;;;;0.60;0.60;;;2.90;99.20;;;;;;5072882;28;20560;-69
2021/03/14 03:18:02;;;;;;;0.93;0.60;;;3.00;98.70;;;;;;5073100;28;20163;-70
2021/03/14 03:20:28;;;;;;;0.50;0.50;;;2.80;98.80;;;;;;5076682;28;20239;-70
2021/03/14 03:22:55;;;;;;;0.40;0.40;;;2.80;98.70;;;;;;5077019;28;20636;-69
2021/03/14 03:25:22;;;;;;;0.40;0.40;;;2.70;99.10;;;;;;5077315;28;20648;-70
2021/03/14 03:27:48;;;;;;;0.60;0.60;;;2.80;99.20;;;;;;5077060;28;20166;-69
2021/03/14 03:30:19;;;;;;;0.60;0.60;;;3.00;98.90;;;;;;5076768;28;20198;-70
2021/03/14 03:32:46;;;;;;;1.02;0.50;;;2.90;98.90;;;;;;5076765;28;20174;-70
2021/03/14 03:35:13;;;;;;;0.40;0.40;;;2.80;99.20;;;;;;5076914;28;20180;-70
2021/03/14 03:37:39;;;;;;;0.40;0.40;;;2.60;99.50;;;;;;5076808;28;20181;-69
2021/03/14 03:40:08;;;;;;;0.40;0.40;;;2.60;99.90;;;;;;5076504;28;20209;-69
2021/03/14 03:42:39;;;;;;;0.43;0.43;;;2.60;99.70;;;;;;5076542;28;20195;-69
2021/03/14 03:45:07;;;;;;;0.85;0.82;;;2.60;99.90;;;;;;5076616;28;20176;-70
2021/03/14 03:47:34;;;;;;;0.75;0.65;;;2.60;99.90;;;;;;5076452;28;20175;-70
2021/03/14 03:50:01;;;;;;;0.63;0.63;;;2.70;99.50;;;;;;5076399;28;20203;-70
2021/03/14 03:52:27;;;;;;;0.40;0.40;;;2.80;99.70;;;;;;5076295;28;20225;-69
2021/03/14 03:54:53;;;;;;;0.45;0.45;;;2.80;99.50;;;;;;5076410;28;20180;-69
2021/03/14 03:57:20;;;;;;;0.63;0.60;;;2.90;99.20;;;;;;5076532;28;20505;-70
2021/03/14 03:59:47;;;;;;;0.93;0.70;;;2.80;99.10;;;;;;5076069;28;20203;-70
2021/03/14 04:02:15;;;;;;;0.70;0.70;;;2.70;99.50;;;;;;5076041;28;20225;-69
2021/03/14 04:04:43;;;;;;;0.80;0.68;;;2.70;99.60;;;;;;5076120;28;20193;-70
2021/03/14 04:07:12;;;;;;;0.80;0.70;;;2.90;99.60;;;;;;5076276;28;20522;-70
2021/03/14 04:09:38;;;;;;;0.90;0.80;;;2.90;99.20;;;;;;5076011;28;20204;-69
2021/03/14 04:12:06;;;;;;;0.88;0.80;;;2.80;99.20;;;;;;5074659;28;20645;-69
2021/03/14 04:14:32;;;;;;;0.60;0.60;;;2.70;99.40;;;;;;5075752;28;20560;-69
2021/03/14 04:16:59;;;;;;;1.05;0.95;;;2.60;99.60;;;;;;5076184;28;20182;-69
2021/03/14 04:19:28;;;;;;;2.08;1.17;;;2.60;99.90;;;;;;5075802;28;20578;-69
2021/03/14 04:21:55;;;;;;;1.58;1.00;;;2.60;99.90;;;;;;5074956;28;20178;-69
2021/03/14 04:24:22;;;;;;;2.08;1.30;;;2.60;99.70;;;;;;5075651;28;20176;-70
2021/03/14 04:26:49;;;;;;;0.73;0.73;;;2.50;99.90;;;;;;5075733;28;20243;-69
2021/03/14 04:29:17;;;;;;;1.45;0.98;;;2.40;99.90;;;;;;5075645;28;20201;-69
2021/03/14 04:31:48;;;;;;;5.68;0.85;;;2.60;99.90;;;;;;5074481;28;20180;-70
2021/03/14 04:34:16;;;;;;;0.80;0.80;;;2.70;99.80;;;;;;5075661;28;20262;-70
2021/03/14 04:36:44;;;;;;;0.60;0.60;;;2.60;99.50;;;;;;5075778;28;20214;-69
2021/03/14 04:39:09;;;;;;;1.10;0.85;;;2.70;99.60;;;;;;5075580;28;20251;-69
2021/03/14 04:41:36;;;;;;;0.50;0.50;;;2.80;99.90;;;;;;5075494;28;20637;-70
2021/03/14 04:44:05;;;;;;;0.55;0.55;;;2.90;99.60;;;;;;5075371;28;20405;-69
2021/03/14 04:46:31;;;;;;;0.50;0.50;;;2.80;99.70;;;;;;5075490;28;20175;-69
2021/03/14 04:48:57;;;;;;;0.40;0.40;;;2.80;99.60;;;;;;5075441;28;20229;-69
2021/03/14 04:51:25;;;;;;;0.43;0.43;;;2.60;99.10;;;;;;5075289;28;20187;-70
2021/03/14 04:53:53;;;;;;;0.43;0.43;;;2.60;99.10;;;;;;5075087;28;20185;-69
2021/03/14 04:56:20;;;;;;;2.20;1.00;;;2.80;99.50;;;;;;5075745;28;20177;-69
2021/03/14 04:58:48;;;;;;;0.73;0.73;;;3.00;99.60;;;;;;5074921;28;20207;-70
2021/03/14 05:01:15;;;;;;;1.40;0.70;;;3.10;99.20;;;;;;5075286;28;20198;-69
2021/03/14 05:03:44;;;;;;;0.82;0.82;;;3.10;99.20;;;;;;5074864;28;20179;-70
2021/03/14 05:06:10;;;;;;;0.60;0.60;;;3.10;98.90;;;;;;5075237;28;20176;-70
2021/03/14 05:08:36;;;;;;;0.55;0.55;;;3.10;98.80;;;;;;5075155;28;20268;-69
2021/03/14 05:11:03;;;;;;;0.63;0.63;;;2.90;99.10;;;;;;5075020;28;20579;-70
2021/03/14 05:13:29;;;;;;;0.40;0.40;;;3.00;99.30;;;;;;5074928;28;20175;-69
2021/03/14 05:15:55;;;;;;;0.60;0.60;;;3.20;99.00;;;;;;5074762;28;20200;-70
2021/03/14 05:18:22;;;;;;;0.40;0.40;;;3.10;99.20;;;;;;5074835;28;20203;-69
2021/03/14 05:20:48;;;;;;;0.43;0.43;;;3.20;99.20;;;;;;5074932;28;20167;-70
2021/03/14 05:23:15;;;;;;;0.52;0.52;;;3.30;99.10;;;;;;5074452;28;20172;-70
2021/03/14 05:25:41;;;;;;;0.40;0.40;;;3.30;98.90;;;;;;5074652;28;20584;-69
2021/03/14 05:28:08;;;;;;;0.50;0.50;;;3.20;99.10;;;;;;5074598;28;20175;-70
2021/03/14 05:30:35;;;;;;;1.08;0.50;;;3.30;99.00;;;;;;5074909;28;20206;-69
2021/03/14 05:33:01;;;;;;;0.50;0.40;;;3.40;98.80;;;;;;5074263;28;20202;-70
2021/03/14 05:35:29;;;;;;;0.73;0.50;;;3.20;99.00;;;;;;5074310;28;20169;-69
2021/03/14 05:37:56;;;;;;;0.40;0.40;;;3.20;98.70;;;;;;5074240;28;20237;-70
2021/03/14 05:40:24;;;;;;;0.63;0.40;;;3.10;98.60;;;;;;5074311;28;20557;-69
2021/03/14 05:42:51;;;;;;;0.60;0.60;;;3.30;98.30;;;;;;5073632;28;20777;-69
2021/03/14 05:45:18;;;;;;;0.70;0.70;;;3.20;97.50;;;;;;5074474;28;20191;-69
2021/03/14 05:47:45;;;;;;;0.80;0.80;;;3.30;97.50;;;;;;5074387;28;20197;-69
2021/03/14 05:50:14;;;;;;;0.60;0.55;;;3.10;97.60;;;;;;5074100;28;20203;-67
2021/03/14 05:52:42;;;;;;;1.45;0.60;;;3.10;97.30;;;;;;5074031;28;20169;-67
2021/03/14 05:55:13;;;;;;;1.00;0.50;;;3.10;97.30;;;;;;5074164;28;20532;-68
2021/03/14 05:57:43;;;;;;;0.50;0.50;;;3.10;97.70;;;;;;5074109;28;20595;-68
2021/03/14 06:00:11;;;;;;;0.40;0.40;;;3.00;97.60;;;;;;5073880;28;20209;-68
2021/03/14 06:02:39;;;;;;;1.05;0.50;;;2.70;97.90;;;;;;5073906;28;20188;-68
2021/03/14 06:05:06;;;;;;;0.75;0.60;;;2.80;98.20;;;;;;5074353;28;20225;-68
2021/03/14 06:07:33;;;;;;;2.35;0.93;;;3.00;98.20;;;;;;5072524;28;20181;-68
2021/03/14 06:09:59;;;;;;;0.40;0.40;;;3.00;97.70;;;;;;5073856;28;20197;-70
2021/03/14 06:12:24;;;;;;;0.73;0.67;;;2.80;98.10;;;;;;5073717;28;20268;-68
2021/03/14 06:14:50;;;;;;;0.50;0.43;;;2.90;98.20;;;;;;5073604;28;20480;-68
2021/03/14 06:17:16;;;;;;;0.40;0.40;;;2.70;98.50;;;;;;5073825;28;20168;-68
2021/03/14 06:19:42;;;;;;;0.50;0.40;;;2.80;98.70;;;;;;5073624;28;20658;-68
2021/03/14 06:22:22;;;;;;;0.98;0.68;;;2.90;98.40;;;;;;5073593;28;20206;-68
2021/03/14 06:24:49;;;;;;;0.60;0.60;;;2.90;97.80;;;;;;5073774;28;20171;-69
2021/03/14 06:27:51;;;;;;;0.40;0.40;;;2.90;98.10;;;;;;5073776;28;20169;-68
2021/03/14 06:30:17;;;;;;;0.65;0.57;;;2.80;98.30;;;;;;5073810;28;20682;-69
2021/03/14 06:33:26;;;;;;;0.60;0.50;;;2.80;98.50;;;;;;5073371;28;20633;-69
2021/03/14 06:35:54;;;;;;;5.05;2.97;;;2.60;98.90;;;;;;5073175;28;20210;-68
2021/03/14 06:38:26;;;;;;;14.60;0.98;;;2.70;99.10;;;;;;5073558;28;20666;-70
2021/03/14 06:41:15;;;;;;;3.40;0.70;;;2.90;98.80;;;;;;5073545;28;20167;-69
2021/03/14 06:43:56;;;;;;;1.02;0.93;;;2.90;98.70;;;;;;5073547;28;20208;-68
2021/03/14 06:46:30;;;;;;;0.90;0.50;;;3.00;98.70;;;;;;5073283;28;20666;-68
2021/03/14 06:49:07;;;;;;;3.53;0.65;;;3.00;98.80;;;;;;5073281;28;20194;-67
2021/03/14 06:51:36;;;;;;;0.93;0.80;;;3.10;98.40;;;;;;5072036;28;20647;-66
2021/03/14 06:54:23;;;;;;;0.45;0.45;;;3.20;98.60;;;;;;5072458;28;20180;-68
2021/03/14 06:57:17;;;;;;;0.50;0.50;;;3.40;98.40;;;;;;5073341;28;20165;-69
2021/03/14 06:59:44;;;;;;;0.50;0.50;;;3.30;98.10;;;;;;5071050;28;20217;-68
2021/03/14 07:02:14;;;;;;;0.63;0.60;;;3.30;98.30;;;;;;5073044;28;20167;-67
2021/03/14 07:04:48;;;;;;;1.25;0.68;;;3.40;98.20;;;;;;5073326;28;20168;-68
2021/03/14 07:07:24;;;;;;;0.55;0.55;;;3.20;98.30;;;;;;5073326;28;20168;-68
2021/03/14 07:10:01;;;;;;;0.80;0.80;;;3.00;98.90;;;;;;5073065;28;20664;-67
2021/03/14 07:12:34;;;;;;;0.60;0.50;;;2.80;99.60;;;;;;5073202;28;20177;-67
2021/03/14 07:15:17;;;;;;;0.47;0.47;;;2.80;99.60;;;;;;5073158;28;20195;-68
2021/03/14 07:17:50;;;;;;;0.40;0.40;;;2.90;99.60;;;;;;5073136;28;20177;-70
2021/03/14 07:20:21;;;;;;;0.60;0.50;;;3.10;99.40;;;;;;5072925;28;20204;-69
2021/03/14 07:23:04;;;;;;;0.40;0.40;;;3.00;99.40;;;;;;5072783;28;20165;-68
2021/03/14 07:25:31;;;;;;;0.40;0.40;;;3.20;99.20;;;;;;5073094;28;20255;-67
2021/03/14 07:27:56;;;;;;;0.40;0.40;;;3.60;98.50;;;;;;5073024;28;20162;-67
2021/03/14 07:30:27;;;;;;;0.60;0.60;;;3.80;97.70;;;;;;5072900;28;20200;-69
2021/03/14 07:32:53;;;;;;;0.88;0.52;;;4.10;96.90;;;;;;5072811;28;20174;-67
2021/03/14 07:35:20;;;;;;;0.43;0.43;;;4.00;96.50;;;;;;5072886;28;20173;-69
2021/03/14 07:37:48;;;;;;;0.60;0.60;;;4.30;95.80;;;;;;5073074;28;20192;-67
2021/03/14 07:40:19;;;;;;;6.18;1.00;;;4.50;95.10;;;;;;5072621;28;20245;-69
2021/03/14 07:42:45;;;;;;;1.33;0.90;;;4.50;95.00;;;;;;5072762;28;20170;-69
2021/03/14 07:45:13;;;;;;;1.00;0.50;;;4.70;94.30;;;;;;5072780;28;20192;-69
2021/03/14 07:47:40;;;;;;;1.02;0.70;;;5.20;94.30;;;;;;5073168;28;20165;-69
2021/03/14 07:50:18;;;;;;;0.60;0.60;;;5.50;92.80;;;;;;5072692;28;20549;-69
2021/03/14 07:52:44;;;;;;;4.20;1.10;;;5.60;92.50;;;;;;5072740;28;20563;-68
2021/03/14 07:55:17;;;;;;;0.70;0.70;;;5.60;92.00;;;;;;5072577;28;20173;-69
2021/03/14 07:57:45;;;;;;;1.20;1.00;;;5.50;91.50;;;;;;5072851;28;20167;-71
2021/03/14 08:00:40;;;;;;;0.50;0.50;;;5.60;91.90;;;;;;5072357;28;20209;-69
2021/03/14 08:03:08;;;;;;;0.50;0.50;;;5.80;91.40;;;;;;5071902;28;20531;-68
2021/03/14 08:05:40;;;;;;;0.65;0.65;;;6.00;90.30;;;;;;5074494;28;20169;-68
2021/03/14 08:08:06;;;;;;;0.40;0.40;;;6.00;90.30;;;;;;5076113;28;20555;-69
2021/03/14 08:10:41;;;;;;;0.90;0.80;;;5.90;90.90;;;;;;5076072;28;20220;-68
2021/03/14 08:13:13;;;;;;;0.50;0.50;;;5.60;90.80;;;;;;5075920;28;20161;-67
2021/03/14 08:15:39;;;;;;;0.77;0.60;;;5.60;91.10;;;;;;5075922;28;20552;-69
2021/03/14 08:18:05;;;;;;;0.40;0.40;;;5.30;91.20;;;;;;5075992;28;20165;-69
2021/03/14 08:20:47;;;;;;;1.63;0.53;;;5.00;92.10;;;;;;5075990;28;20165;-68
2021/03/14 08:23:18;;;;;;;0.88;0.60;;;4.80;92.40;;;;;;5075753;28;20408;-69
2021/03/14 08:25:48;;;;;;;0.82;0.82;;;4.50;93.30;;;;;;5075851;28;20173;-68
2021/03/14 08:28:28;;;;;;;1.25;0.85;;;4.50;93.60;;;;;;5075816;28;20218;-68
2021/03/14 08:30:59;;;;;;;1.48;0.90;;;4.70;93.40;;;;;;5075863;28;20193;-69
2021/03/14 08:33:26;;;;;;;1.15;0.50;;;4.80;93.00;;;;;;5075710;28;20240;-69
2021/03/14 08:36:13;;;;;;;0.80;0.70;;;4.60;92.90;;;;;;5075712;28;20171;-69
2021/03/14 08:38:44;;;;;;;2.03;1.55;;;4.50;94.00;;;;;;5075640;28;20202;-69
2021/03/14 08:41:22;;;;;;;1.15;0.85;;;4.40;94.20;;;;;;5075453;28;20169;-68
2021/03/14 08:44:08;;;;;;;2.05;1.30;;;4.50;94.60;;;;;;5075350;28;20559;-68
2021/03/14 08:46:46;;;;;;;2.00;0.73;;;4.30;94.30;;;;;;5075478;28;20169;-68
2021/03/14 08:49:23;;;;;;;1.60;1.00;;;4.60;94.50;;;;;;5075250;28;20224;-69
2021/03/14 08:51:49;;;;;;;0.68;0.68;;;5.10;94.00;;;;;;5075351;28;20180;-68
2021/03/14 08:54:15;;;;;;;0.65;0.65;;;5.20;93.60;;;;;;5075164;28;20223;-68
2021/03/14 08:56:41;;;;;;;1.42;1.33;;;5.40;93.40;;;;;;5075253;28;20169;-68
2021/03/14 08:59:12;;;;;;;1.67;1.40;;;5.40;92.70;;;;;;5074974;28;20204;-70
2021/03/14 09:01:38;;;;;;;1.48;0.73;;;5.40;93.00;;;;;;5075324;28;20161;-67
2021/03/14 09:04:12;;;;;;;0.70;0.70;;;5.60;93.30;;;;;;5074877;28;20174;-70
2021/03/14 09:06:38;;;;;;;1.13;1.13;;;6.00;92.70;;;;;;5075090;28;20256;-68
2021/03/14 09:09:07;;;;;;;1.42;1.27;;;6.30;91.70;;;;;;5074912;28;20204;-69
2021/03/14 09:11:55;;;;;;;0.98;0.98;;;6.50;91.10;;;;;;5074728;28;20185;-68
2021/03/14 09:14:32;;;;;;;0.73;0.73;;;6.50;90.90;;;;;;5074893;28;20534;-68
2021/03/14 09:17:01;;;;;;;2.80;0.75;;;6.40;91.50;;;;;;5074387;28;20206;-68
2021/03/14 09:19:30;;;;;;;0.70;0.70;;;6.40;91.70;;;;;;5074584;28;20198;-69
2021/03/14 09:22:03;;;;;;;2.20;0.70;;;7.00;90.60;;;;;;5074859;28;20212;-69
2021/03/14 09:24:32;;;;;;;0.60;0.60;;;7.40;89.70;;;;;;5074745;28;20557;-69
2021/03/14 09:27:02;;;;;;;0.60;0.60;;;7.40;88.60;;;;;;5074541;28;20165;-68
2021/03/14 09:29:36;;;;;;;2.40;1.17;;;7.40;88.90;;;;;;5074488;28;20274;-69
2021/03/14 09:32:12;;;;;;;1.65;1.40;;;7.40;89.30;;;;;;5074779;28;20175;-69
2021/03/14 09:34:38;;;;;;;0.70;0.70;;;7.80;88.80;;;;;;5074612;28;20178;-69
2021/03/14 09:37:03;;;;;;;0.90;0.80;;;8.30;87.40;;;;;;5074559;28;20256;-68
2021/03/14 09:39:29;;;;;;;3.87;2.23;;;8.40;85.90;;;;;;5074059;28;20667;-68
2021/03/14 09:41:55;;;;;;;1.10;1.00;;;8.80;85.00;;;;;;5074571;28;20252;-68
2021/03/14 09:44:20;;;;;;;0.80;0.63;;;9.00;81.70;;;;;;5074176;28;20188;-69
2021/03/14 09:47:00;;;;;;;1.90;0.90;;;9.20;82.30;;;;;;5074186;28;20211;-68
2021/03/14 09:49:27;;;;;;;2.65;1.83;;;8.90;80.80;;;;;;5074021;28;20702;-69
2021/03/14 09:51:57;;;;;;;1.08;0.80;;;9.00;78.50;;;;;;5074300;28;20535;-68
2021/03/14 09:54:24;;;;;;;1.35;0.80;;;9.30;78.60;;;;;;5073901;28;20175;-67
2021/03/14 09:56:56;;;;;;;1.40;1.10;;;9.50;76.10;;;;;;5074165;28;20515;-69
2021/03/14 09:59:26;;;;;;;1.33;0.70;;;9.40;75.10;;;;;;5074077;28;20209;-69
2021/03/14 10:01:55;;;;;;;2.15;0.60;;;9.10;76.20;;;;;;5074147;28;20181;-67
2021/03/14 10:04:21;;;;;;;1.05;1.05;;;8.90;75.50;;;;;;5073701;28;20168;-68
2021/03/14 10:06:46;;;;;;;2.00;1.70;;;8.80;77.70;;;;;;5074126;28;20591;-68
2021/03/14 10:09:26;;;;;;;1.23;1.00;;;9.20;77.20;;;;;;5073803;28;20196;-68
2021/03/14 10:11:53;;;;;;;3.53;0.98;;;9.30;74.20;;;;;;5073973;28;20179;-68
2021/03/14 10:14:20;;;;;;;1.20;1.02;;;8.10;76.20;;;;;;5073623;28;20176;-68
2021/03/14 10:16:49;;;;;;;1.13;1.02;;;7.70;80.10;;;;;;5073887;28;20275;-69
2021/03/14 10:19:16;;;;;;;1.55;0.98;;;7.60;81.70;;;;;;5073721;28;20212;-67
2021/03/14 10:21:48;;;;;;;1.20;0.70;;;7.80;82.80;;;;;;5073867;28;20258;-69
2021/03/14 10:24:21;;;;;;;1.63;1.10;;;7.50;80.40;;;;;;5073454;28;20175;-69
2021/03/14 10:27:05;;;;;;;0.90;0.85;;;7.20;81.20;;;;;;5073701;28;20172;-70
2021/03/14 10:29:33;;;;;;;1.05;0.95;;;7.20;83.90;;;;;;5073990;28;20238;-68
2021/03/14 10:32:00;;;;;;;1.10;0.90;;;7.20;84.80;;;;;;5073441;28;20174;-68
2021/03/14 10:34:27;;;;;;;1.50;1.27;;;7.10;82.00;;;;;;5073418;28;20184;-69
2021/03/14 10:36:53;;;;;;;1.63;0.90;;;7.00;83.80;;;;;;5073553;28;20201;-68
2021/03/14 10:39:30;;;;;;;4.35;1.30;;;7.10;84.60;;;;;;5073309;28;20203;-69
2021/03/14 10:41:56;;;;;;;1.75;1.15;;;7.00;84.20;;;;;;5073577;28;20197;-69
2021/03/14 10:44:24;;;;;;;2.55;1.52;;;7.20;84.80;;;;;;5073172;28;20174;-69
2021/03/14 10:46:51;;;;;;;2.88;1.25;;;7.10;84.50;;;;;;5073539;28;20170;-69
2021/03/14 10:49:25;;;;;;;3.42;3.05;;;6.80;86.20;;;;;;5073242;28;20205;-67
2021/03/14 10:51:54;;;;;;;1.42;1.33;;;6.40;86.50;;;;;;5073596;28;20177;-69
2021/03/14 10:54:20;;;;;;;1.35;1.15;;;6.40;88.40;;;;;;5073004;28;20174;-67
2021/03/14 10:56:48;;;;;;;15.20;13.30;;;6.40;88.30;;;;;;5073229;28;20178;-68
2021/03/14 10:59:33;;;;;;;3.72;2.03;;;6.50;88.80;;;;;;5073103;28;20537;-69
2021/03/14 11:02:19;;;;;;;1.30;1.13;;;6.80;88.50;;;;;;5073281;28;20170;-69
2021/03/14 11:04:58;;;;;;;2.78;1.02;;;6.80;87.90;;;;;;5073026;28;20199;-68
2021/03/14 11:07:31;;;;;;;1.02;0.77;;;6.90;88.00;;;;;;5073352;28;20165;-67
2021/03/14 11:10:11;;;;;;;1.10;0.88;;;6.90;88.40;;;;;;5073416;28;20209;-69
2021/03/14 11:12:42;;;;;;;2.97;0.98;;;6.60;89.50;;;;;;5072813;28;20699;-67
2021/03/14 11:15:20;;;;;;;0.85;0.85;;;6.60;90.10;;;;;;5073048;28;20681;-69
2021/03/14 11:17:46;;;;;;;2.75;2.30;;;6.60;90.00;;;;;;5073128;28;20215;-69
2021/03/14 11:20:12;;;;;;;1.73;1.50;;;6.30;90.20;;;;;;5072902;28;20220;-69
2021/03/14 11:22:37;;;;;;;1.55;1.45;;;6.00;90.90;;;;;;5073076;28;20175;-69
2021/03/14 11:25:04;;;;;;;2.23;0.90;;;5.70;91.70;;;;;;5073109;28;20165;-69
2021/03/14 11:27:29;;;;;;;3.65;2.35;;;5.70;92.00;;;;;;5073142;28;20161;-68
2021/03/14 11:29:55;;;;;;;4.10;1.47;;;5.40;92.60;;;;;;5072874;28;20736;-69
2021/03/14 11:32:21;;;;;;;1.27;0.90;;;5.20;93.20;;;;;;5072742;28;20198;-68
2021/03/14 11:34:47;;;;;;;0.70;0.70;;;5.10;93.90;;;;;;5073293;28;20174;-67
2021/03/14 11:37:14;;;;;;;2.47;0.77;;;4.90;94.30;;;;;;5072956;28;20545;-68
2021/03/14 11:39:41;;;;;;;2.55;1.45;;;4.60;94.60;;;;;;5073440;28;20280;-68
2021/03/14 11:42:08;;;;;;;1.13;1.02;;;4.50;95.00;;;;;;5076876;28;20187;-69
2021/03/14 11:44:34;;;;;;;3.92;1.20;;;4.30;95.70;;;;;;5076474;28;20877;-67
2021/03/14 11:47:00;;;;;;;0.77;0.77;;;4.40;96.00;;;;;;5076588;28;20169;-68
2021/03/14 11:49:26;;;;;;;1.57;1.47;;;4.50;96.00;;;;;;5076460;28;20425;-67
2021/03/14 11:51:51;;;;;;;4.20;0.93;;;4.70;95.80;;;;;;5076693;28;20177;-69
2021/03/14 11:54:18;;;;;;;0.97;0.60;;;4.80;95.70;;;;;;5076379;28;20404;-68
2021/03/14 11:56:45;;;;;;;0.50;0.50;;;4.80;95.60;;;;;;5076539;28;20907;-68
2021/03/14 11:59:10;;;;;;;0.60;0.60;;;4.80;95.50;;;;;;5076173;28;20216;-68
2021/03/14 12:01:36;;;;;;;0.70;0.70;;;4.80;95.50;;;;;;5076335;28;20167;-69
2021/03/14 12:04:02;;;;;;;0.83;0.70;;;4.70;95.90;;;;;;5076219;28;20410;-68
2021/03/14 12:06:28;;;;;;;0.50;0.50;;;4.50;96.20;;;;;;5076525;28;20654;-68
2021/03/14 12:08:53;;;;;;;1.13;0.70;;;4.40;96.40;;;;;;5076210;28;20189;-69
2021/03/14 12:11:19;;;;;;;0.73;0.40;;;4.40;96.30;;;;;;5076032;28;20166;-68
2021/03/14 12:13:45;;;;;;;0.30;0.30;;;3.90;96.60;;;;;;5075953;28;20410;-67
2021/03/14 12:16:11;;;;;;;0.40;0.40;;;3.80;97.30;;;;;;5075762;28;20428;-67
2021/03/14 12:18:37;;;;;;;0.40;0.40;;;3.80;97.80;;;;;;5075822;28;20861;-68
2021/03/14 12:21:03;;;;;;;0.40;0.40;;;3.80;97.90;;;;;;5076064;28;20184;-68
2021/03/14 12:23:29;;;;;;;0.53;0.53;;;3.90;97.90;;;;;;5075731;28;20170;-67
2021/03/14 12:25:55;;;;;;;0.50;0.50;;;4.10;97.70;;;;;;5075877;28;20404;-68
2021/03/14 12:28:21;;;;;;;0.50;0.50;;;4.10;97.10;;;;;;5075859;28;20196;-67
2021/03/14 12:30:48;;;;;;;0.40;0.40;;;4.00;97.30;;;;;;5075774;28;20411;-69
2021/03/14 12:33:13;;;;;;;0.80;0.70;;;3.90;97.80;;;;;;5075649;28;20418;-67
2021/03/14 12:35:39;;;;;;;0.60;0.60;;;4.00;97.70;;;;;;5075804;28;20173;-68
2021/03/14 12:38:05;;;;;;;1.10;1.10;;;4.10;97.70;;;;;;5076296;28;20205;-68
2021/03/14 12:40:31;;;;;;;0.70;0.70;;;4.10;97.50;;;;;;5075474;28;20482;-68
2021/03/14 12:42:57;;;;;;;1.08;0.80;;;4.10;97.30;;;;;;5073994;28;20169;-69
2021/03/14 12:45:23;;;;;;;1.67;0.85;;;4.20;97.70;;;;;;5075711;28;20531;-69
2021/03/14 12:47:50;;;;;;;4.78;1.50;;;4.30;97.30;;;;;;5075717;28;20649;-68
2021/03/14 12:50:16;;;;;;;1.48;0.85;;;4.30;96.80;;;;;;5075387;28;20194;-68
2021/03/14 12:52:42;;;;;;;1.40;0.82;;;4.00;97.70;;;;;;5074163;28;20176;-68
2021/03/14 12:55:09;;;;;;;0.60;0.60;;;4.00;98.10;;;;;;5075378;28;20173;-68
2021/03/14 12:57:35;;;;;;;0.82;0.82;;;4.10;97.70;;;;;;5075346;28;20566;-68
2021/03/14 13:00:05;;;;;;;10.30;8.25;;;4.40;97.00;;;;;;5075098;28;20211;-68
2021/03/14 13:02:30;;;;;;;3.80;2.03;;;4.60;96.80;;;;;;5075070;28;20199;-68
2021/03/14 13:04:56;;;;;;;0.77;0.77;;;4.90;96.80;;;;;;5075109;28;20260;-69
2021/03/14 13:07:22;;;;;;;2.00;0.70;;;5.10;96.00;;;;;;5075251;28;20173;-68